<?xml version="1.0" encoding="UTF-8" standalone="no" ?>
<gpx xmlns="http://www.topografix.com/GPX/1/1" xmlns:xsi="http://www.w3.org/2001/XMLSchema-instance" xsi:schemaLocation="http://www.topografix.com/GPX/1/1 http://www.topografix.com/GPX/1/1/gpx.xsd" version="1.1" creator="VisuGPX - https://www.visugpx.com">
  <metadata>
    <name>Drome coline - Abbaye </name>
    <desc><![CDATA[Projet pour 10/2021
gits ;
Roybon  La Dupre
Montrigaud  Limone vallee]]></desc>
  </metadata>
  <trk>
    <name><![CDATA[J1 Boucle de Louis Mandrin]]></name>
    <trkseg>
      <trkpt lat="45.25478" lon="5.26473">
        <ele>620</ele>
        <time>2020-04-14T15:53:54Z</time>
      </trkpt>
      <trkpt lat="45.25369" lon="5.264">
        <ele>620</ele>
        <time>2020-04-14T15:53:59Z</time>
      </trkpt>
      <trkpt lat="45.25433" lon="5.26361">
        <ele>620</ele>
        <time>2020-04-14T15:54:04Z</time>
      </trkpt>
      <trkpt lat="45.25496" lon="5.26258">
        <ele>617</ele>
        <time>2020-04-14T15:54:09Z</time>
      </trkpt>
      <trkpt lat="45.25608" lon="5.26087">
        <ele>610</ele>
        <time>2020-04-14T15:54:14Z</time>
      </trkpt>
      <trkpt lat="45.25674" lon="5.25949">
        <ele>600</ele>
        <time>2020-04-14T15:54:19Z</time>
      </trkpt>
      <trkpt lat="45.25701" lon="5.25949">
        <ele>598</ele>
        <time>2020-04-14T15:54:24Z</time>
      </trkpt>
      <trkpt lat="45.25816" lon="5.26138">
        <ele>587</ele>
        <time>2020-04-14T15:54:29Z</time>
      </trkpt>
      <trkpt lat="45.25795" lon="5.26378">
        <ele>582</ele>
        <time>2020-04-14T15:54:34Z</time>
      </trkpt>
      <trkpt lat="45.25768" lon="5.26619">
        <ele>586</ele>
        <time>2020-04-14T15:54:39Z</time>
      </trkpt>
      <trkpt lat="45.25729" lon="5.26808">
        <ele>588</ele>
        <time>2020-04-14T15:54:44Z</time>
      </trkpt>
      <trkpt lat="45.25656" lon="5.26881">
        <ele>590</ele>
        <time>2020-04-14T15:54:49Z</time>
      </trkpt>
      <trkpt lat="45.25466" lon="5.26984">
        <ele>596</ele>
        <time>2020-04-14T15:54:54Z</time>
      </trkpt>
      <trkpt lat="45.25303" lon="5.27018">
        <ele>609</ele>
        <time>2020-04-14T15:54:59Z</time>
      </trkpt>
      <trkpt lat="45.252" lon="5.27134">
        <ele>609</ele>
        <time>2020-04-14T15:55:04Z</time>
      </trkpt>
      <trkpt lat="45.25124" lon="5.27112">
        <ele>617</ele>
        <time>2020-04-14T15:55:09Z</time>
      </trkpt>
      <trkpt lat="45.25121" lon="5.27215">
        <ele>608</ele>
        <time>2020-04-14T15:55:14Z</time>
      </trkpt>
      <trkpt lat="45.25049" lon="5.2746">
        <ele>588</ele>
        <time>2020-04-14T15:55:19Z</time>
      </trkpt>
      <trkpt lat="45.25079" lon="5.27464">
        <ele>584</ele>
        <time>2020-04-14T15:55:24Z</time>
      </trkpt>
      <trkpt lat="45.25064" lon="5.27503">
        <ele>588</ele>
        <time>2020-04-14T15:55:29Z</time>
      </trkpt>
      <trkpt lat="45.25091" lon="5.27606">
        <ele>591</ele>
        <time>2020-04-14T15:55:34Z</time>
      </trkpt>
      <trkpt lat="45.25124" lon="5.27619">
        <ele>597</ele>
        <time>2020-04-14T15:55:39Z</time>
      </trkpt>
      <trkpt lat="45.25161" lon="5.27589">
        <ele>599</ele>
        <time>2020-04-14T15:55:44Z</time>
      </trkpt>
      <trkpt lat="45.25191" lon="5.2761">
        <ele>604</ele>
        <time>2020-04-14T15:55:49Z</time>
      </trkpt>
      <trkpt lat="45.25248" lon="5.27619">
        <ele>609</ele>
        <time>2020-04-14T15:55:54Z</time>
      </trkpt>
      <trkpt lat="45.2543" lon="5.27563">
        <ele>611</ele>
        <time>2020-04-14T15:55:59Z</time>
      </trkpt>
      <trkpt lat="45.25581" lon="5.27563">
        <ele>611</ele>
        <time>2020-04-14T15:56:04Z</time>
      </trkpt>
      <trkpt lat="45.25626" lon="5.27662">
        <ele>610</ele>
        <time>2020-04-14T15:56:09Z</time>
      </trkpt>
      <trkpt lat="45.25647" lon="5.27799">
        <ele>608</ele>
        <time>2020-04-14T15:56:14Z</time>
      </trkpt>
      <trkpt lat="45.25638" lon="5.27911">
        <ele>609</ele>
        <time>2020-04-14T15:56:19Z</time>
      </trkpt>
      <trkpt lat="45.2565" lon="5.28108">
        <ele>595</ele>
        <time>2020-04-14T15:56:24Z</time>
      </trkpt>
      <trkpt lat="45.25584" lon="5.28228">
        <ele>591</ele>
        <time>2020-04-14T15:56:29Z</time>
      </trkpt>
      <trkpt lat="45.25587" lon="5.28267">
        <ele>587</ele>
        <time>2020-04-14T15:56:34Z</time>
      </trkpt>
      <trkpt lat="45.25614" lon="5.28288">
        <ele>585</ele>
        <time>2020-04-14T15:56:39Z</time>
      </trkpt>
      <trkpt lat="45.25695" lon="5.28275">
        <ele>590</ele>
        <time>2020-04-14T15:56:44Z</time>
      </trkpt>
      <trkpt lat="45.25638" lon="5.28378">
        <ele>605</ele>
        <time>2020-04-14T15:56:49Z</time>
      </trkpt>
      <trkpt lat="45.25611" lon="5.28601">
        <ele>610</ele>
        <time>2020-04-14T15:56:54Z</time>
      </trkpt>
      <trkpt lat="45.25324" lon="5.28962">
        <ele>631</ele>
        <time>2020-04-14T15:56:59Z</time>
      </trkpt>
      <trkpt lat="45.25269" lon="5.28983">
        <ele>635</ele>
        <time>2020-04-14T15:57:04Z</time>
      </trkpt>
      <trkpt lat="45.25206" lon="5.29061">
        <ele>639</ele>
        <time>2020-04-14T15:57:09Z</time>
      </trkpt>
      <trkpt lat="45.25073" lon="5.29151">
        <ele>640</ele>
        <time>2020-04-14T15:57:14Z</time>
      </trkpt>
      <trkpt lat="45.24937" lon="5.29352">
        <ele>653</ele>
        <time>2020-04-14T15:57:19Z</time>
      </trkpt>
      <trkpt lat="45.24744" lon="5.29434">
        <ele>660</ele>
        <time>2020-04-14T15:57:24Z</time>
      </trkpt>
      <trkpt lat="45.24644" lon="5.29464">
        <ele>660</ele>
        <time>2020-04-14T15:57:29Z</time>
      </trkpt>
      <trkpt lat="45.24578" lon="5.29533">
        <ele>661</ele>
        <time>2020-04-14T15:57:34Z</time>
      </trkpt>
      <trkpt lat="45.24433" lon="5.29563">
        <ele>662</ele>
        <time>2020-04-14T15:57:39Z</time>
      </trkpt>
      <trkpt lat="45.24387" lon="5.29614">
        <ele>666</ele>
        <time>2020-04-14T15:57:44Z</time>
      </trkpt>
      <trkpt lat="45.24324" lon="5.29588">
        <ele>667</ele>
        <time>2020-04-14T15:57:49Z</time>
      </trkpt>
      <trkpt lat="45.24294" lon="5.29739">
        <ele>669</ele>
        <time>2020-04-14T15:57:54Z</time>
      </trkpt>
      <trkpt lat="45.24188" lon="5.30219">
        <ele>680</ele>
        <time>2020-04-14T15:57:59Z</time>
      </trkpt>
      <trkpt lat="45.24064" lon="5.3076">
        <ele>690</ele>
        <time>2020-04-14T15:58:04Z</time>
      </trkpt>
      <trkpt lat="45.24167" lon="5.30799">
        <ele>691</ele>
        <time>2020-04-14T15:58:09Z</time>
      </trkpt>
      <trkpt lat="45.24281" lon="5.30846">
        <ele>698</ele>
        <time>2020-04-14T15:58:14Z</time>
      </trkpt>
      <trkpt lat="45.24354" lon="5.3094">
        <ele>700</ele>
        <time>2020-04-14T15:58:19Z</time>
      </trkpt>
      <trkpt lat="45.24408" lon="5.3097">
        <ele>697</ele>
        <time>2020-04-14T15:58:24Z</time>
      </trkpt>
      <trkpt lat="45.24481" lon="5.31026">
        <ele>693</ele>
        <time>2020-04-14T15:58:29Z</time>
      </trkpt>
      <trkpt lat="45.24566" lon="5.30979">
        <ele>690</ele>
        <time>2020-04-14T15:58:34Z</time>
      </trkpt>
      <trkpt lat="45.24828" lon="5.31073">
        <ele>690</ele>
        <time>2020-04-14T15:58:39Z</time>
      </trkpt>
      <trkpt lat="45.24919" lon="5.31026">
        <ele>692</ele>
        <time>2020-04-14T15:58:44Z</time>
      </trkpt>
      <trkpt lat="45.25134" lon="5.30996">
        <ele>698</ele>
        <time>2020-04-14T15:58:49Z</time>
      </trkpt>
      <trkpt lat="45.25276" lon="5.31009">
        <ele>694</ele>
        <time>2020-04-14T15:58:54Z</time>
      </trkpt>
      <trkpt lat="45.25273" lon="5.31133">
        <ele>700</ele>
        <time>2020-04-14T15:58:59Z</time>
      </trkpt>
      <trkpt lat="45.25312" lon="5.31318">
        <ele>700</ele>
        <time>2020-04-14T15:59:04Z</time>
      </trkpt>
      <trkpt lat="45.25303" lon="5.31369">
        <ele>700</ele>
        <time>2020-04-14T15:59:09Z</time>
      </trkpt>
      <trkpt lat="45.25333" lon="5.31434">
        <ele>700</ele>
        <time>2020-04-14T15:59:14Z</time>
      </trkpt>
      <trkpt lat="45.25475" lon="5.31541">
        <ele>700</ele>
        <time>2020-04-14T15:59:19Z</time>
      </trkpt>
      <trkpt lat="45.25689" lon="5.31644">
        <ele>700</ele>
        <time>2020-04-14T15:59:24Z</time>
      </trkpt>
      <trkpt lat="45.25931" lon="5.31854">
        <ele>710</ele>
        <time>2020-04-14T15:59:29Z</time>
      </trkpt>
      <trkpt lat="45.26004" lon="5.31854">
        <ele>710</ele>
        <time>2020-04-14T15:59:34Z</time>
      </trkpt>
      <trkpt lat="45.26094" lon="5.31906">
        <ele>710</ele>
        <time>2020-04-14T15:59:39Z</time>
      </trkpt>
      <trkpt lat="45.26278" lon="5.32108">
        <ele>709</ele>
        <time>2020-04-14T15:59:44Z</time>
      </trkpt>
      <trkpt lat="45.2642" lon="5.32236">
        <ele>711</ele>
        <time>2020-04-14T15:59:49Z</time>
      </trkpt>
      <trkpt lat="45.2655" lon="5.32301">
        <ele>710</ele>
        <time>2020-04-14T15:59:54Z</time>
      </trkpt>
      <trkpt lat="45.26523" lon="5.32352">
        <ele>710</ele>
        <time>2020-04-14T15:59:59Z</time>
      </trkpt>
      <trkpt lat="45.26653" lon="5.32412">
        <ele>719</ele>
        <time>2020-04-14T16:00:04Z</time>
      </trkpt>
      <trkpt lat="45.26713" lon="5.32468">
        <ele>720</ele>
        <time>2020-04-14T16:00:09Z</time>
      </trkpt>
      <trkpt lat="45.26822" lon="5.32532">
        <ele>720</ele>
        <time>2020-04-14T16:00:14Z</time>
      </trkpt>
      <trkpt lat="45.26813" lon="5.3258">
        <ele>719</ele>
        <time>2020-04-14T16:00:19Z</time>
      </trkpt>
      <trkpt lat="45.26852" lon="5.3264">
        <ele>714</ele>
        <time>2020-04-14T16:00:24Z</time>
      </trkpt>
      <trkpt lat="45.26864" lon="5.3273">
        <ele>705</ele>
        <time>2020-04-14T16:00:29Z</time>
      </trkpt>
      <trkpt lat="45.26858" lon="5.32781">
        <ele>697</ele>
        <time>2020-04-14T16:00:34Z</time>
      </trkpt>
      <trkpt lat="45.26886" lon="5.32833">
        <ele>686</ele>
        <time>2020-04-14T16:00:39Z</time>
      </trkpt>
      <trkpt lat="45.26982" lon="5.3285">
        <ele>687</ele>
        <time>2020-04-14T16:00:44Z</time>
      </trkpt>
      <trkpt lat="45.27109" lon="5.32833">
        <ele>680</ele>
        <time>2020-04-14T16:00:49Z</time>
      </trkpt>
      <trkpt lat="45.27188" lon="5.32979">
        <ele>684</ele>
        <time>2020-04-14T16:00:54Z</time>
      </trkpt>
      <trkpt lat="45.27251" lon="5.3291">
        <ele>696</ele>
        <time>2020-04-14T16:00:59Z</time>
      </trkpt>
      <trkpt lat="45.2736" lon="5.32872">
        <ele>715</ele>
        <time>2020-04-14T16:01:04Z</time>
      </trkpt>
      <trkpt lat="45.27375" lon="5.3285">
        <ele>716</ele>
        <time>2020-04-14T16:01:09Z</time>
      </trkpt>
      <trkpt lat="45.27514" lon="5.32996">
        <ele>722</ele>
        <time>2020-04-14T16:01:14Z</time>
      </trkpt>
      <trkpt lat="45.27607" lon="5.33129">
        <ele>730</ele>
        <time>2020-04-14T16:01:19Z</time>
      </trkpt>
      <trkpt lat="45.27659" lon="5.33168">
        <ele>726</ele>
        <time>2020-04-14T16:01:24Z</time>
      </trkpt>
      <trkpt lat="45.27988" lon="5.33253">
        <ele>711</ele>
        <time>2020-04-14T16:01:29Z</time>
      </trkpt>
      <trkpt lat="45.2806" lon="5.33288">
        <ele>710</ele>
        <time>2020-04-14T16:01:34Z</time>
      </trkpt>
      <trkpt lat="45.28223" lon="5.33305">
        <ele>730</ele>
        <time>2020-04-14T16:01:39Z</time>
      </trkpt>
      <trkpt lat="45.28299" lon="5.33245">
        <ele>720</ele>
        <time>2020-04-14T16:01:44Z</time>
      </trkpt>
      <trkpt lat="45.28504" lon="5.33202">
        <ele>709</ele>
        <time>2020-04-14T16:01:49Z</time>
      </trkpt>
      <trkpt lat="45.28559" lon="5.33219">
        <ele>707</ele>
        <time>2020-04-14T16:01:54Z</time>
      </trkpt>
      <trkpt lat="45.2858" lon="5.33159">
        <ele>706</ele>
        <time>2020-04-14T16:01:59Z</time>
      </trkpt>
      <trkpt lat="45.28556" lon="5.33108">
        <ele>706</ele>
        <time>2020-04-14T16:02:04Z</time>
      </trkpt>
      <trkpt lat="45.28556" lon="5.33013">
        <ele>705</ele>
        <time>2020-04-14T16:02:09Z</time>
      </trkpt>
      <trkpt lat="45.28595" lon="5.3282">
        <ele>700</ele>
        <time>2020-04-14T16:02:14Z</time>
      </trkpt>
      <trkpt lat="45.28556" lon="5.32635">
        <ele>694</ele>
        <time>2020-04-14T16:02:19Z</time>
      </trkpt>
      <trkpt lat="45.28565" lon="5.32563">
        <ele>689</ele>
        <time>2020-04-14T16:02:24Z</time>
      </trkpt>
      <trkpt lat="45.28631" lon="5.32472">
        <ele>683</ele>
        <time>2020-04-14T16:02:29Z</time>
      </trkpt>
      <trkpt lat="45.28664" lon="5.32395">
        <ele>680</ele>
        <time>2020-04-14T16:02:34Z</time>
      </trkpt>
      <trkpt lat="45.28734" lon="5.32284">
        <ele>677</ele>
        <time>2020-04-14T16:02:39Z</time>
      </trkpt>
      <trkpt lat="45.28764" lon="5.32185">
        <ele>676</ele>
        <time>2020-04-14T16:02:44Z</time>
      </trkpt>
      <trkpt lat="45.28833" lon="5.3206">
        <ele>675</ele>
        <time>2020-04-14T16:02:49Z</time>
      </trkpt>
      <trkpt lat="45.28842" lon="5.31983">
        <ele>673</ele>
        <time>2020-04-14T16:02:54Z</time>
      </trkpt>
      <trkpt lat="45.2883" lon="5.31846">
        <ele>670</ele>
        <time>2020-04-14T16:02:59Z</time>
      </trkpt>
      <trkpt lat="45.28824" lon="5.31575">
        <ele>664</ele>
        <time>2020-04-14T16:03:04Z</time>
      </trkpt>
      <trkpt lat="45.28882" lon="5.31442">
        <ele>663</ele>
        <time>2020-04-14T16:03:09Z</time>
      </trkpt>
      <trkpt lat="45.28918" lon="5.31434">
        <ele>663</ele>
        <time>2020-04-14T16:03:14Z</time>
      </trkpt>
      <trkpt lat="45.28936" lon="5.314">
        <ele>662</ele>
        <time>2020-04-14T16:03:19Z</time>
      </trkpt>
      <trkpt lat="45.2903" lon="5.31387">
        <ele>661</ele>
        <time>2020-04-14T16:03:24Z</time>
      </trkpt>
      <trkpt lat="45.29042" lon="5.31206">
        <ele>661</ele>
        <time>2020-04-14T16:03:29Z</time>
      </trkpt>
      <trkpt lat="45.29045" lon="5.31039">
        <ele>660</ele>
        <time>2020-04-14T16:03:34Z</time>
      </trkpt>
      <trkpt lat="45.29072" lon="5.30794">
        <ele>655</ele>
        <time>2020-04-14T16:03:39Z</time>
      </trkpt>
      <trkpt lat="45.2903" lon="5.30558">
        <ele>654</ele>
        <time>2020-04-14T16:03:44Z</time>
      </trkpt>
      <trkpt lat="45.28972" lon="5.30361">
        <ele>650</ele>
        <time>2020-04-14T16:03:49Z</time>
      </trkpt>
      <trkpt lat="45.28987" lon="5.30237">
        <ele>650</ele>
        <time>2020-04-14T16:03:54Z</time>
      </trkpt>
      <trkpt lat="45.28978" lon="5.2988">
        <ele>644</ele>
        <time>2020-04-14T16:03:59Z</time>
      </trkpt>
      <trkpt lat="45.2903" lon="5.2973">
        <ele>642</ele>
        <time>2020-04-14T16:04:04Z</time>
      </trkpt>
      <trkpt lat="45.2909" lon="5.29601">
        <ele>638</ele>
        <time>2020-04-14T16:04:09Z</time>
      </trkpt>
      <trkpt lat="45.29117" lon="5.29464">
        <ele>635</ele>
        <time>2020-04-14T16:04:14Z</time>
      </trkpt>
      <trkpt lat="45.28861" lon="5.29473">
        <ele>639</ele>
        <time>2020-04-14T16:04:19Z</time>
      </trkpt>
      <trkpt lat="45.28845" lon="5.28863">
        <ele>628</ele>
        <time>2020-04-14T16:04:24Z</time>
      </trkpt>
      <trkpt lat="45.28782" lon="5.2888">
        <ele>630</ele>
        <time>2020-04-14T16:04:29Z</time>
      </trkpt>
      <trkpt lat="45.28746" lon="5.28923">
        <ele>632</ele>
        <time>2020-04-14T16:04:34Z</time>
      </trkpt>
      <trkpt lat="45.28691" lon="5.28936">
        <ele>633</ele>
        <time>2020-04-14T16:04:39Z</time>
      </trkpt>
      <trkpt lat="45.28658" lon="5.28898">
        <ele>631</ele>
        <time>2020-04-14T16:04:44Z</time>
      </trkpt>
      <trkpt lat="45.28658" lon="5.28812">
        <ele>630</ele>
        <time>2020-04-14T16:04:49Z</time>
      </trkpt>
      <trkpt lat="45.28685" lon="5.28717">
        <ele>629</ele>
        <time>2020-04-14T16:04:54Z</time>
      </trkpt>
      <trkpt lat="45.28734" lon="5.28709">
        <ele>629</ele>
        <time>2020-04-14T16:04:59Z</time>
      </trkpt>
      <trkpt lat="45.28782" lon="5.2858">
        <ele>628</ele>
        <time>2020-04-14T16:05:04Z</time>
      </trkpt>
      <trkpt lat="45.28773" lon="5.2852">
        <ele>628</ele>
        <time>2020-04-14T16:05:09Z</time>
      </trkpt>
      <trkpt lat="45.28785" lon="5.2846">
        <ele>626</ele>
        <time>2020-04-14T16:05:14Z</time>
      </trkpt>
      <trkpt lat="45.28746" lon="5.28357">
        <ele>630</ele>
        <time>2020-04-14T16:05:19Z</time>
      </trkpt>
      <trkpt lat="45.28646" lon="5.27915">
        <ele>624</ele>
        <time>2020-04-14T16:05:24Z</time>
      </trkpt>
      <trkpt lat="45.28604" lon="5.27859">
        <ele>626</ele>
        <time>2020-04-14T16:05:29Z</time>
      </trkpt>
      <trkpt lat="45.28571" lon="5.27752">
        <ele>625</ele>
        <time>2020-04-14T16:05:34Z</time>
      </trkpt>
      <trkpt lat="45.28504" lon="5.27623">
        <ele>624</ele>
        <time>2020-04-14T16:05:39Z</time>
      </trkpt>
      <trkpt lat="45.28525" lon="5.27503">
        <ele>615</ele>
        <time>2020-04-14T16:05:44Z</time>
      </trkpt>
      <trkpt lat="45.28528" lon="5.27408">
        <ele>609</ele>
        <time>2020-04-14T16:05:49Z</time>
      </trkpt>
      <trkpt lat="45.28519" lon="5.27365">
        <ele>606</ele>
        <time>2020-04-14T16:05:54Z</time>
      </trkpt>
      <trkpt lat="45.28483" lon="5.27288">
        <ele>598</ele>
        <time>2020-04-14T16:05:59Z</time>
      </trkpt>
      <trkpt lat="45.28453" lon="5.2728">
        <ele>597</ele>
        <time>2020-04-14T16:06:04Z</time>
      </trkpt>
      <trkpt lat="45.2845" lon="5.27258">
        <ele>594</ele>
        <time>2020-04-14T16:06:09Z</time>
      </trkpt>
      <trkpt lat="45.28507" lon="5.27074">
        <ele>583</ele>
        <time>2020-04-14T16:06:14Z</time>
      </trkpt>
      <trkpt lat="45.28471" lon="5.27095">
        <ele>583</ele>
        <time>2020-04-14T16:06:19Z</time>
      </trkpt>
      <trkpt lat="45.28471" lon="5.27117">
        <ele>584</ele>
        <time>2020-04-14T16:06:24Z</time>
      </trkpt>
      <trkpt lat="45.28305" lon="5.27293">
        <ele>609</ele>
        <time>2020-04-14T16:06:29Z</time>
      </trkpt>
      <trkpt lat="45.28214" lon="5.27314">
        <ele>616</ele>
        <time>2020-04-14T16:06:34Z</time>
      </trkpt>
      <trkpt lat="45.281" lon="5.27228">
        <ele>623</ele>
        <time>2020-04-14T16:06:39Z</time>
      </trkpt>
      <trkpt lat="45.28021" lon="5.27224">
        <ele>623</ele>
        <time>2020-04-14T16:06:44Z</time>
      </trkpt>
      <trkpt lat="45.27924" lon="5.27168">
        <ele>620</ele>
        <time>2020-04-14T16:06:49Z</time>
      </trkpt>
      <trkpt lat="45.27858" lon="5.27134">
        <ele>615</ele>
        <time>2020-04-14T16:06:54Z</time>
      </trkpt>
      <trkpt lat="45.27816" lon="5.27074">
        <ele>610</ele>
        <time>2020-04-14T16:06:59Z</time>
      </trkpt>
      <trkpt lat="45.27761" lon="5.27069">
        <ele>605</ele>
        <time>2020-04-14T16:07:04Z</time>
      </trkpt>
      <trkpt lat="45.2771" lon="5.26923">
        <ele>594</ele>
        <time>2020-04-14T16:07:09Z</time>
      </trkpt>
      <trkpt lat="45.2761" lon="5.2685">
        <ele>587</ele>
        <time>2020-04-14T16:07:14Z</time>
      </trkpt>
      <trkpt lat="45.27505" lon="5.26803">
        <ele>580</ele>
        <time>2020-04-14T16:07:19Z</time>
      </trkpt>
      <trkpt lat="45.27411" lon="5.26747">
        <ele>567</ele>
        <time>2020-04-14T16:07:24Z</time>
      </trkpt>
      <trkpt lat="45.27357" lon="5.26662">
        <ele>552</ele>
        <time>2020-04-14T16:07:29Z</time>
      </trkpt>
      <trkpt lat="45.27308" lon="5.26473">
        <ele>549</ele>
        <time>2020-04-14T16:07:34Z</time>
      </trkpt>
      <trkpt lat="45.27097" lon="5.26657">
        <ele>551</ele>
        <time>2020-04-14T16:07:39Z</time>
      </trkpt>
      <trkpt lat="45.27012" lon="5.26529">
        <ele>570</ele>
        <time>2020-04-14T16:07:44Z</time>
      </trkpt>
      <trkpt lat="45.26928" lon="5.2646">
        <ele>582</ele>
        <time>2020-04-14T16:07:49Z</time>
      </trkpt>
      <trkpt lat="45.26816" lon="5.26288">
        <ele>586</ele>
        <time>2020-04-14T16:07:54Z</time>
      </trkpt>
      <trkpt lat="45.26562" lon="5.26022">
        <ele>592</ele>
        <time>2020-04-14T16:07:59Z</time>
      </trkpt>
      <trkpt lat="45.26457" lon="5.26001">
        <ele>593</ele>
        <time>2020-04-14T16:08:04Z</time>
      </trkpt>
      <trkpt lat="45.26433" lon="5.25915">
        <ele>588</ele>
        <time>2020-04-14T16:08:09Z</time>
      </trkpt>
      <trkpt lat="45.26472" lon="5.25851">
        <ele>584</ele>
        <time>2020-04-14T16:08:14Z</time>
      </trkpt>
      <trkpt lat="45.26448" lon="5.25606">
        <ele>559</ele>
        <time>2020-04-14T16:08:19Z</time>
      </trkpt>
      <trkpt lat="45.26408" lon="5.25615">
        <ele>558</ele>
        <time>2020-04-14T16:08:24Z</time>
      </trkpt>
      <trkpt lat="45.26327" lon="5.25713">
        <ele>558</ele>
        <time>2020-04-14T16:08:29Z</time>
      </trkpt>
      <trkpt lat="45.26245" lon="5.25984">
        <ele>552</ele>
        <time>2020-04-14T16:08:34Z</time>
      </trkpt>
      <trkpt lat="45.26306" lon="5.25512">
        <ele>527</ele>
        <time>2020-04-14T16:08:39Z</time>
      </trkpt>
      <trkpt lat="45.26209" lon="5.25383">
        <ele>522</ele>
        <time>2020-04-14T16:08:44Z</time>
      </trkpt>
      <trkpt lat="45.26185" lon="5.25494">
        <ele>526</ele>
        <time>2020-04-14T16:08:49Z</time>
      </trkpt>
      <trkpt lat="45.26115" lon="5.25619">
        <ele>534</ele>
        <time>2020-04-14T16:08:54Z</time>
      </trkpt>
      <trkpt lat="45.26091" lon="5.25842">
        <ele>532</ele>
        <time>2020-04-14T16:08:59Z</time>
      </trkpt>
      <trkpt lat="45.26025" lon="5.25855">
        <ele>549</ele>
        <time>2020-04-14T16:09:04Z</time>
      </trkpt>
      <trkpt lat="45.25952" lon="5.26048">
        <ele>564</ele>
        <time>2020-04-14T16:09:09Z</time>
      </trkpt>
      <trkpt lat="45.25904" lon="5.26087">
        <ele>572</ele>
        <time>2020-04-14T16:09:14Z</time>
      </trkpt>
      <trkpt lat="45.25892" lon="5.26147">
        <ele>572</ele>
        <time>2020-04-14T16:09:19Z</time>
      </trkpt>
      <trkpt lat="45.25807" lon="5.26263">
        <ele>584</ele>
        <time>2020-04-14T16:09:24Z</time>
      </trkpt>
      <trkpt lat="45.25807" lon="5.26134">
        <ele>589</ele>
        <time>2020-04-14T16:09:29Z</time>
      </trkpt>
      <trkpt lat="45.25695" lon="5.25945">
        <ele>598</ele>
        <time>2020-04-14T16:09:34Z</time>
      </trkpt>
      <trkpt lat="45.25629" lon="5.26022">
        <ele>605</ele>
        <time>2020-04-14T16:09:39Z</time>
      </trkpt>
      <trkpt lat="45.25517" lon="5.26224">
        <ele>616</ele>
        <time>2020-04-14T16:09:44Z</time>
      </trkpt>
      <trkpt lat="45.2543" lon="5.26357">
        <ele>620</ele>
        <time>2020-04-14T16:09:49Z</time>
      </trkpt>
      <trkpt lat="45.25366" lon="5.26408">
        <ele>620</ele>
        <time>2020-04-14T16:09:54Z</time>
      </trkpt>
      <trkpt lat="45.25475" lon="5.26469">
        <ele>620</ele>
        <time>2020-04-14T16:09:59Z</time>
      </trkpt>
    </trkseg>
  </trk>
</gpx>